createdAt,value
2017-09-06T00:02:01.530Z,20.38
2017-09-06T00:04:28.439Z,20.49
2017-09-06T00:06:55.316Z,20.42
2017-09-06T00:09:22.114Z,20.42
2017-09-06T00:11:48.947Z,20.32
2017-09-06T00:14:16.667Z,20.33
2017-09-06T00:16:43.539Z,20.36
2017-09-06T00:19:10.366Z,20.27
2017-09-06T00:21:37.193Z,20.33
2017-09-06T00:24:04.069Z,20.01
2017-09-06T00:26:30.935Z,19.99
2017-09-06T00:28:58.013Z,20.04
2017-09-06T00:31:24.853Z,20.14
2017-09-06T00:33:51.747Z,20.18
2017-09-06T00:36:18.617Z,20.26
2017-09-06T00:38:45.440Z,20.18
2017-09-06T00:41:12.291Z,20.35
2017-09-06T00:43:39.757Z,20.24
2017-09-06T00:46:07.204Z,20.25
2017-09-06T00:48:34.051Z,20.24
2017-09-06T00:51:01.574Z,20.11
2017-09-06T00:53:28.499Z,20.22
2017-09-06T01:08:50.902Z,20.20
2017-09-06T01:11:18.950Z,20.07
2017-09-06T01:13:47.663Z,20.23
2017-09-06T01:16:15.140Z,20.23
2017-09-06T01:18:42.175Z,20.35
2017-09-06T01:21:09.174Z,20.29
2017-09-06T01:23:36.113Z,20.13
2017-09-06T01:26:03.054Z,20.21
2017-09-06T01:28:29.978Z,20.23
2017-09-06T01:30:57.020Z,20.22
2017-09-06T01:54:58.074Z,19.75
2017-09-06T01:57:35.236Z,19.55
2017-09-06T02:00:11.747Z,19.68
2017-09-06T02:02:47.511Z,19.92
2017-09-06T02:08:41.556Z,19.84
2017-09-06T02:11:14.493Z,19.95
2017-09-06T02:13:41.380Z,19.90
2017-09-06T02:16:08.242Z,19.83
2017-09-06T02:18:35.042Z,19.89
2017-09-06T02:21:01.922Z,19.88
2017-09-06T02:23:28.762Z,19.90
2017-09-06T02:25:55.613Z,19.90
2017-09-06T02:28:22.499Z,19.93
2017-09-06T02:30:49.300Z,20.00
2017-09-06T02:33:16.115Z,20.04
2017-09-06T02:35:42.958Z,19.93
2017-09-06T02:38:09.774Z,19.87
2017-09-06T02:40:36.650Z,19.94
2017-09-06T02:43:03.576Z,19.95
2017-09-06T02:45:30.466Z,19.92
2017-09-06T02:47:57.287Z,19.85
2017-09-06T02:50:24.236Z,19.83
2017-09-06T02:52:51.088Z,19.87
2017-09-06T02:55:17.927Z,19.85
2017-09-06T02:57:44.768Z,19.74
2017-09-06T03:00:11.576Z,19.75
2017-09-06T03:02:38.388Z,19.86
2017-09-06T03:05:05.260Z,19.76
2017-09-06T03:07:32.068Z,19.71
2017-09-06T03:09:58.870Z,19.68
2017-09-06T03:12:25.733Z,19.68
2017-09-06T03:14:52.557Z,19.80
2017-09-06T03:17:19.403Z,19.87
2017-09-06T03:19:46.211Z,19.97
2017-09-06T03:22:12.991Z,19.85
2017-09-06T03:24:39.819Z,19.76
2017-09-06T03:27:06.607Z,19.85
2017-09-06T03:29:33.456Z,19.91
2017-09-06T03:32:00.277Z,19.91
2017-09-06T03:34:27.127Z,19.95
2017-09-06T03:36:54.004Z,19.97
2017-09-06T03:39:20.832Z,19.96
2017-09-06T03:41:47.629Z,20.02
2017-09-06T03:44:14.452Z,20.04
2017-09-06T03:46:41.300Z,19.96
2017-09-06T03:49:08.179Z,20.01
2017-09-06T03:51:35.021Z,19.96
2017-09-06T03:54:01.859Z,19.98
2017-09-06T03:56:28.754Z,20.06
2017-09-06T03:58:55.576Z,19.83
2017-09-06T04:01:22.414Z,19.91
2017-09-06T04:03:49.231Z,19.95
2017-09-06T04:06:16.035Z,19.92
2017-09-06T04:08:42.898Z,20.05
2017-09-06T04:11:09.763Z,19.69
2017-09-06T04:13:36.611Z,20.00
2017-09-06T04:16:03.438Z,19.98
2017-09-06T04:18:30.278Z,19.96
2017-09-06T04:20:57.112Z,19.81
2017-09-06T04:23:23.939Z,19.84
2017-09-06T04:25:50.795Z,19.94
2017-09-06T04:28:17.631Z,19.82
2017-09-06T04:30:44.429Z,19.83
2017-09-06T04:33:11.280Z,19.72
2017-09-06T04:35:39.486Z,19.82
2017-09-06T04:38:06.281Z,19.75
2017-09-06T04:40:33.084Z,19.88
2017-09-06T04:42:59.946Z,19.78
2017-09-06T04:45:26.788Z,19.83
2017-09-06T04:47:53.638Z,19.38
2017-09-06T04:50:20.459Z,19.41
2017-09-06T04:52:47.266Z,19.66
2017-09-06T04:55:14.078Z,19.67
2017-09-06T04:57:40.893Z,19.32
2017-09-06T05:00:07.709Z,19.56
2017-09-06T05:02:34.556Z,19.61
2017-09-06T05:05:01.416Z,19.70
2017-09-06T05:07:28.255Z,19.76
2017-09-06T05:09:55.044Z,19.69
2017-09-06T05:12:21.870Z,19.46
2017-09-06T05:14:48.695Z,19.44
2017-09-06T05:17:15.524Z,19.58
2017-09-06T05:19:42.328Z,19.68
2017-09-06T05:22:09.152Z,19.45
2017-09-06T05:24:35.975Z,19.20
2017-09-06T05:27:02.802Z,19.44
2017-09-06T05:29:29.738Z,19.16
2017-09-06T05:31:56.564Z,19.05
2017-09-06T05:34:23.375Z,19.06
2017-09-06T05:36:50.159Z,19.47
2017-09-06T05:39:17.016Z,19.48
2017-09-06T05:41:43.824Z,19.03
2017-09-06T05:44:10.708Z,18.95
2017-09-06T05:46:37.516Z,19.32
2017-09-06T05:49:04.370Z,19.49
2017-09-06T05:51:31.222Z,19.21
2017-09-06T05:53:58.042Z,19.19
2017-09-06T05:56:24.887Z,19.23
2017-09-06T05:58:51.696Z,19.18
2017-09-06T06:01:18.602Z,19.37
2017-09-06T06:03:45.523Z,19.07
2017-09-06T06:06:12.379Z,19.38
2017-09-06T06:08:39.172Z,18.75
2017-09-06T06:11:06.017Z,18.72
2017-09-06T06:13:32.827Z,19.06
2017-09-06T06:15:59.651Z,19.02
2017-09-06T06:18:26.542Z,18.54
2017-09-06T06:20:53.387Z,18.84
2017-09-06T06:23:20.223Z,18.57
2017-09-06T06:25:47.040Z,18.96
2017-09-06T06:28:13.847Z,18.86
2017-09-06T06:30:40.656Z,19.07
2017-09-06T06:33:07.464Z,19.01
2017-09-06T06:35:34.302Z,19.13
2017-09-06T06:38:01.136Z,18.98
2017-09-06T06:40:27.970Z,18.98
2017-09-06T06:42:54.755Z,19.10
2017-09-06T06:45:21.559Z,19.36
2017-09-06T06:47:48.372Z,19.28
2017-09-06T06:50:15.223Z,19.12
2017-09-06T06:52:42.029Z,19.23
2017-09-06T06:55:08.850Z,19.21
2017-09-06T06:57:35.682Z,19.01
2017-09-06T07:00:02.574Z,19.25
2017-09-06T07:02:29.388Z,19.20
2017-09-06T07:04:56.185Z,19.16
2017-09-06T07:07:22.963Z,19.18
2017-09-06T07:09:49.776Z,19.13
2017-09-06T07:12:16.634Z,19.01
2017-09-06T07:14:43.505Z,18.96
2017-09-06T07:17:10.545Z,18.73
2017-09-06T07:19:37.373Z,18.96
2017-09-06T07:22:04.170Z,18.92
2017-09-06T07:24:30.987Z,18.77
2017-09-06T07:26:57.854Z,18.58
2017-09-06T07:29:24.698Z,18.59
2017-09-06T07:31:51.586Z,18.67
2017-09-06T07:34:18.390Z,18.80
2017-09-06T07:36:45.219Z,18.79
2017-09-06T07:39:12.066Z,18.31
2017-09-06T07:41:38.873Z,18.71
2017-09-06T07:44:05.778Z,18.86
2017-09-06T07:46:32.618Z,18.62
2017-09-06T07:48:59.475Z,18.68
2017-09-06T07:51:26.309Z,18.63
2017-09-06T07:53:53.143Z,18.64
2017-09-06T07:56:19.990Z,18.38
2017-09-06T07:58:46.851Z,18.37
2017-09-06T08:01:13.663Z,18.55
2017-09-06T08:03:40.466Z,18.42
2017-09-06T08:06:07.278Z,18.75
2017-09-06T08:08:34.089Z,18.32
2017-09-06T08:11:00.945Z,18.04
2017-09-06T08:13:27.759Z,17.83
2017-09-06T08:15:54.566Z,17.93
2017-09-06T08:18:21.402Z,17.90
2017-09-06T08:20:48.230Z,17.46
2017-09-06T08:23:15.083Z,18.03
2017-09-06T08:25:41.895Z,17.78
2017-09-06T08:28:08.713Z,18.05
2017-09-06T08:30:35.566Z,17.43
2017-09-06T08:33:02.403Z,17.40
2017-09-06T08:35:29.213Z,17.59
2017-09-06T08:37:56.086Z,17.60
2017-09-06T08:40:22.914Z,17.54
2017-09-06T08:42:49.731Z,17.61
2017-09-06T08:45:16.555Z,17.41
2017-09-06T08:47:43.383Z,17.32
2017-09-06T08:50:10.200Z,17.01
2017-09-06T08:52:37.039Z,16.75
2017-09-06T08:55:03.870Z,17.31
2017-09-06T08:57:30.714Z,16.66
2017-09-06T08:59:57.580Z,16.72
2017-09-06T09:02:24.422Z,16.70
2017-09-06T09:04:51.242Z,16.91
2017-09-06T09:07:18.097Z,17.28
2017-09-06T09:09:44.939Z,16.92
2017-09-06T09:12:11.764Z,16.77
2017-09-06T09:14:38.576Z,16.80
2017-09-06T09:17:05.391Z,16.97
2017-09-06T09:19:32.217Z,17.23
2017-09-06T09:21:59.042Z,17.21
2017-09-06T09:24:25.915Z,16.99
2017-09-06T09:26:52.781Z,17.12
2017-09-06T09:29:19.615Z,17.58
2017-09-06T09:31:46.432Z,17.41
2017-09-06T09:34:13.277Z,17.99
2017-09-06T09:36:40.131Z,17.82
2017-09-06T09:39:06.955Z,17.88
2017-09-06T09:41:33.802Z,17.95
2017-09-06T09:44:00.657Z,17.55
2017-09-06T09:46:27.469Z,17.81
2017-09-06T09:48:54.292Z,17.94
2017-09-06T09:51:21.159Z,17.77
2017-09-06T09:53:47.995Z,17.84
2017-09-06T09:56:14.819Z,18.04
2017-09-06T09:58:41.662Z,17.92
2017-09-06T10:01:08.478Z,18.11
2017-09-06T10:03:35.293Z,18.51
2017-09-06T10:06:02.131Z,18.73
2017-09-06T10:08:28.975Z,18.78
2017-09-06T10:10:55.810Z,18.65
2017-09-06T10:13:22.699Z,18.10
2017-09-06T10:18:16.167Z,17.67
2017-09-06T10:20:43.079Z,18.22
2017-09-06T10:23:09.910Z,18.56
2017-09-06T10:25:36.758Z,18.93
2017-09-06T10:28:03.603Z,19.03
2017-09-06T10:30:30.447Z,19.13
2017-09-06T10:32:57.290Z,19.25
2017-09-06T10:35:24.110Z,18.85
2017-09-06T10:37:50.952Z,18.80
2017-09-06T10:40:17.791Z,19.01
2017-09-06T10:42:44.624Z,18.47
2017-09-06T10:45:11.457Z,18.38
2017-09-06T10:47:38.306Z,18.47
2017-09-06T10:50:05.142Z,18.42
2017-09-06T10:52:31.992Z,18.78
2017-09-06T10:54:58.839Z,19.05
2017-09-06T10:57:25.671Z,18.76
2017-09-06T10:59:52.464Z,19.09
2017-09-06T11:02:19.300Z,18.94
2017-09-06T11:04:46.092Z,19.01
2017-09-06T11:07:12.901Z,18.98
2017-09-06T11:09:39.717Z,18.88
2017-09-06T11:12:06.631Z,19.32
2017-09-06T11:14:33.487Z,19.75
2017-09-06T11:17:00.301Z,19.40
2017-09-06T11:19:27.187Z,19.55
2017-09-06T11:21:54.030Z,18.90
2017-09-06T11:24:20.866Z,19.21
2017-09-06T11:26:47.746Z,19.09
2017-09-06T11:29:14.614Z,19.25
2017-09-06T11:31:41.463Z,19.34
2017-09-06T11:34:08.286Z,19.62
2017-09-06T11:36:35.180Z,18.87
2017-09-06T11:39:02.027Z,19.41
2017-09-06T11:41:28.862Z,19.89
2017-09-06T11:43:55.691Z,20.21
2017-09-06T11:46:22.519Z,19.66
2017-09-06T11:48:49.418Z,19.37
2017-09-06T11:51:16.292Z,19.04
2017-09-06T11:53:43.127Z,19.65
2017-09-06T11:56:09.961Z,19.32
2017-09-06T11:58:36.775Z,19.91
2017-09-06T12:01:03.584Z,20.00
2017-09-06T12:03:30.446Z,20.38
2017-09-06T12:05:57.335Z,20.48
2017-09-06T12:08:24.170Z,20.25
2017-09-06T12:10:51.051Z,20.18
2017-09-06T12:13:17.852Z,20.65
2017-09-06T12:15:44.665Z,20.49
2017-09-06T12:18:11.487Z,20.30
2017-09-06T12:20:38.334Z,20.49
2017-09-06T12:23:05.179Z,20.83
2017-09-06T12:25:32.041Z,21.06
2017-09-06T12:27:58.876Z,20.74
2017-09-06T12:30:25.688Z,20.57
2017-09-06T12:32:52.515Z,20.24
2017-09-06T12:35:19.365Z,20.60
2017-09-06T12:37:46.180Z,20.51
2017-09-06T12:40:13.035Z,20.42
2017-09-06T12:42:39.903Z,20.51
2017-09-06T12:45:06.751Z,20.24
2017-09-06T12:47:33.844Z,20.53
2017-09-06T12:50:00.708Z,20.68
2017-09-06T12:52:27.507Z,20.84
2017-09-06T12:54:54.430Z,20.82
2017-09-06T12:57:21.249Z,20.99
2017-09-06T12:59:48.101Z,20.90
2017-09-06T13:02:14.975Z,21.27
2017-09-06T13:04:41.798Z,21.27
2017-09-06T13:07:08.588Z,21.82
2017-09-06T13:09:35.416Z,21.32
2017-09-06T13:12:02.221Z,21.92
2017-09-06T13:14:29.098Z,22.34
2017-09-06T13:16:56.021Z,21.31
2017-09-06T13:19:22.853Z,21.95
2017-09-06T13:21:49.658Z,21.85
2017-09-06T13:24:16.511Z,22.42
2017-09-06T13:26:43.387Z,22.40
2017-09-06T13:29:10.276Z,22.59
2017-09-06T13:31:37.117Z,22.32
2017-09-06T13:34:03.973Z,22.59
2017-09-06T13:36:30.863Z,22.07
2017-09-06T13:38:57.694Z,22.08
2017-09-06T13:41:24.515Z,21.76
2017-09-06T13:43:51.329Z,22.56
2017-09-06T13:46:18.136Z,22.67
2017-09-06T13:48:44.982Z,22.35
2017-09-06T13:51:11.804Z,22.44
2017-09-06T13:53:38.637Z,22.33
2017-09-06T13:56:05.466Z,22.01
2017-09-06T13:58:32.277Z,22.13
2017-09-06T14:00:59.207Z,22.18
2017-09-06T14:03:26.090Z,21.77
2017-09-06T14:05:52.890Z,21.77
2017-09-06T14:08:19.724Z,21.21
2017-09-06T14:10:46.528Z,21.27
2017-09-06T14:13:13.329Z,20.91
2017-09-06T14:15:40.162Z,21.33
2017-09-06T14:18:06.999Z,20.75
2017-09-06T14:20:33.867Z,20.60
2017-09-06T14:23:00.708Z,20.88
2017-09-06T14:25:27.554Z,20.72
2017-09-06T14:27:54.426Z,20.41
2017-09-06T14:30:21.267Z,20.22
2017-09-06T14:32:48.096Z,20.31
2017-09-06T14:35:14.974Z,20.45
2017-09-06T14:37:42.008Z,20.48
2017-09-06T14:40:08.807Z,20.78
2017-09-06T14:42:35.650Z,20.68
2017-09-06T14:45:02.524Z,20.18
2017-09-06T14:47:29.338Z,19.94
2017-09-06T14:49:56.183Z,20.44
2017-09-06T14:52:23.004Z,19.97
2017-09-06T14:54:49.854Z,20.18
2017-09-06T14:57:16.703Z,19.44
2017-09-06T14:59:43.503Z,19.60
2017-09-06T15:02:10.423Z,19.32
2017-09-06T15:04:37.268Z,19.33
2017-09-06T15:07:04.136Z,18.37
2017-09-06T15:09:30.942Z,17.77
2017-09-06T15:11:57.771Z,18.33
2017-09-06T15:14:24.593Z,17.77
2017-09-06T15:16:51.421Z,18.42
2017-09-06T15:19:18.229Z,18.27
2017-09-06T15:21:45.262Z,18.69
2017-09-06T15:24:12.123Z,18.35
2017-09-06T15:26:38.951Z,17.89
2017-09-06T15:29:05.802Z,18.42
2017-09-06T15:31:32.633Z,18.61
2017-09-06T15:33:59.466Z,18.32
2017-09-06T15:36:26.292Z,18.57
2017-09-06T15:38:53.124Z,18.25
2017-09-06T15:41:20.040Z,18.62
2017-09-06T15:43:46.901Z,18.71
2017-09-06T15:46:13.700Z,18.71
2017-09-06T15:48:40.513Z,18.71
2017-09-06T15:51:07.342Z,18.79
2017-09-06T15:53:34.926Z,18.65
2017-09-06T15:56:01.727Z,18.62
2017-09-06T15:58:28.573Z,18.70
2017-09-06T16:00:55.390Z,18.83
2017-09-06T16:03:22.236Z,18.81
2017-09-06T16:05:49.094Z,18.85
2017-09-06T16:08:15.919Z,18.67
2017-09-06T16:10:42.759Z,18.52
2017-09-06T16:13:09.569Z,18.70
2017-09-06T16:15:36.451Z,18.92
2017-09-06T16:18:03.364Z,18.68
2017-09-06T16:20:30.226Z,18.43
2017-09-06T16:22:57.093Z,18.65
2017-09-06T16:25:23.940Z,18.11
2017-09-06T16:27:50.747Z,18.35
2017-09-06T16:30:17.560Z,18.64
2017-09-06T16:32:44.379Z,18.32
2017-09-06T16:35:11.220Z,18.60
2017-09-06T16:37:38.049Z,18.35
2017-09-06T16:40:04.923Z,18.27
2017-09-06T16:42:31.804Z,18.19
2017-09-06T16:44:58.669Z,18.26
2017-09-06T16:47:25.479Z,18.20
2017-09-06T16:49:52.322Z,17.94
2017-09-06T16:52:19.141Z,17.91
2017-09-06T16:54:45.979Z,18.18
2017-09-06T16:57:12.812Z,17.84
2017-09-06T16:59:39.651Z,18.00
2017-09-06T17:02:06.459Z,18.13
2017-09-06T17:04:33.255Z,17.89
2017-09-06T17:07:00.103Z,17.80
2017-09-06T17:09:41.820Z,17.90
2017-09-06T17:12:08.664Z,17.59
2017-09-06T17:14:35.512Z,17.69
2017-09-06T17:17:02.348Z,17.89
2017-09-06T17:19:29.171Z,17.59
2017-09-06T17:21:55.997Z,17.17
2017-09-06T17:24:22.828Z,16.79
2017-09-06T17:26:49.654Z,17.01
2017-09-06T17:29:16.470Z,16.41
2017-09-06T17:31:43.339Z,16.59
2017-09-06T17:34:10.176Z,16.37
2017-09-06T17:36:37.024Z,16.17
2017-09-06T17:39:03.974Z,16.00
2017-09-06T17:41:31.067Z,16.14
2017-09-06T17:43:57.969Z,16.38
2017-09-06T17:46:24.843Z,16.33
2017-09-06T18:06:56.492Z,15.81
2017-09-06T18:09:24.183Z,15.64
2017-09-06T18:11:51.092Z,15.71
2017-09-06T18:14:18.405Z,16.47
2017-09-06T18:16:46.611Z,16.05
2017-09-06T18:19:13.687Z,16.40
2017-09-06T18:21:40.618Z,16.74
2017-09-06T18:24:07.646Z,17.15
2017-09-06T18:26:35.614Z,16.94
2017-09-06T18:29:02.857Z,16.61
2017-09-06T18:31:29.724Z,16.77
2017-09-06T18:33:56.645Z,16.78
2017-09-06T18:36:24.226Z,16.39
2017-09-06T18:38:52.299Z,16.94
2017-09-06T18:41:20.333Z,16.86
2017-09-06T18:43:48.370Z,16.97
2017-09-06T18:46:16.893Z,16.73
2017-09-06T18:48:45.594Z,17.07
2017-09-06T18:51:12.784Z,16.36
2017-09-06T18:53:39.746Z,16.74
2017-09-06T18:56:06.619Z,17.07
2017-09-06T18:58:33.573Z,16.99
2017-09-06T19:01:00.567Z,16.86
2017-09-06T19:03:27.466Z,17.20
2017-09-06T19:05:55.391Z,16.75
2017-09-06T19:08:23.002Z,16.99
2017-09-06T19:10:51.733Z,17.23
2017-09-06T19:13:18.985Z,17.26
2017-09-06T19:15:47.380Z,17.16
2017-09-06T19:18:14.487Z,17.20
2017-09-06T19:20:41.963Z,16.94
2017-09-06T19:23:09.294Z,16.46
2017-09-06T19:25:36.372Z,17.00
2017-09-06T19:28:03.225Z,16.84
2017-09-06T19:30:30.345Z,16.99
2017-09-06T19:32:58.165Z,16.98
2017-09-06T19:35:25.199Z,17.00
2017-09-06T19:37:52.179Z,17.12
2017-09-06T19:40:19.400Z,16.68
2017-09-06T19:42:46.245Z,16.93
2017-09-06T19:45:13.063Z,16.53
2017-09-06T19:47:40.023Z,16.84
2017-09-06T19:50:07.367Z,16.86
2017-09-06T19:52:35.038Z,16.12
2017-09-06T19:55:02.161Z,16.23
2017-09-06T19:57:29.991Z,16.13
2017-09-06T19:59:58.599Z,16.07
2017-09-06T20:02:25.505Z,16.48
2017-09-06T20:04:52.476Z,16.13
2017-09-06T20:07:19.286Z,16.56
2017-09-06T20:09:46.649Z,15.95
2017-09-06T20:12:13.482Z,15.96
2017-09-06T20:14:40.771Z,16.00
2017-09-06T20:17:07.659Z,16.08
2017-09-06T20:19:34.824Z,15.94
2017-09-06T20:22:01.788Z,16.08
2017-09-06T20:24:28.657Z,16.02
2017-09-06T20:26:55.478Z,16.11
2017-09-06T20:29:22.383Z,15.81
2017-09-06T20:31:49.224Z,16.42
2017-09-06T20:34:16.069Z,16.49
2017-09-06T20:36:42.938Z,16.26
2017-09-06T20:39:09.794Z,16.38
2017-09-06T20:41:37.163Z,15.84
2017-09-06T20:44:03.985Z,16.31
2017-09-06T20:46:30.817Z,16.44
2017-09-06T20:48:57.743Z,16.38
2017-09-06T20:51:25.184Z,16.56
2017-09-06T20:53:52.059Z,16.46
2017-09-06T20:56:18.946Z,16.21
2017-09-06T20:58:46.222Z,16.15
2017-09-06T21:01:13.962Z,16.58
2017-09-06T21:03:40.825Z,16.01
2017-09-06T21:06:07.896Z,16.47
2017-09-06T21:08:34.707Z,16.21
2017-09-06T21:11:01.798Z,16.40
2017-09-06T21:13:28.946Z,16.17
2017-09-06T21:15:55.814Z,16.45
2017-09-06T21:18:22.647Z,16.05
2017-09-06T21:20:49.660Z,16.27
2017-09-06T21:23:16.495Z,16.37
2017-09-06T21:25:43.319Z,16.11
2017-09-06T21:28:10.160Z,16.10
2017-09-06T21:30:36.938Z,16.33
2017-09-06T21:33:03.822Z,16.44
2017-09-06T21:35:30.719Z,15.82
2017-09-06T21:37:57.956Z,15.73
2017-09-06T21:40:24.861Z,16.04
2017-09-06T21:42:51.642Z,15.55
2017-09-06T21:45:18.450Z,16.14
2017-09-06T21:47:45.698Z,16.29
2017-09-06T21:50:13.027Z,16.07
2017-09-06T21:52:40.284Z,15.91
2017-09-06T21:55:07.674Z,15.94
2017-09-06T21:57:34.602Z,15.99
2017-09-06T22:00:01.764Z,15.90
2017-09-06T22:02:28.603Z,16.08
2017-09-06T22:04:55.408Z,16.05
2017-09-06T22:07:22.208Z,15.89
2017-09-06T22:09:49.013Z,15.84
2017-09-06T22:12:15.847Z,15.65
2017-09-06T22:14:42.661Z,15.31
2017-09-06T22:17:09.474Z,15.64
2017-09-06T22:19:36.291Z,15.39
2017-09-06T22:22:03.102Z,15.96
2017-09-06T22:24:29.942Z,16.12
2017-09-06T22:26:56.809Z,15.59
2017-09-06T22:29:23.634Z,16.26
2017-09-06T22:31:50.461Z,16.28
2017-09-06T22:34:17.245Z,16.21
2017-09-06T22:36:44.066Z,16.27
2017-09-06T22:39:10.891Z,16.25
2017-09-06T22:41:37.708Z,16.30
2017-09-06T22:44:05.481Z,15.54
2017-09-06T22:46:32.294Z,15.56
2017-09-06T22:49:03.256Z,16.08
2017-09-06T22:51:33.685Z,15.88
2017-09-06T22:54:01.055Z,16.13
2017-09-06T22:56:27.906Z,16.19
2017-09-06T22:58:55.637Z,16.14
2017-09-06T23:01:22.523Z,16.08
2017-09-06T23:03:49.672Z,16.06
2017-09-06T23:06:16.467Z,15.82
2017-09-06T23:08:43.285Z,16.20
2017-09-06T23:11:10.100Z,16.01
2017-09-06T23:13:36.951Z,16.11
2017-09-06T23:16:03.746Z,15.83
2017-09-06T23:18:30.609Z,16.06
2017-09-06T23:20:57.418Z,16.19
2017-09-06T23:23:24.310Z,16.34
2017-09-06T23:25:51.132Z,16.28
2017-09-06T23:28:17.932Z,15.78
2017-09-06T23:30:44.740Z,16.09
2017-09-06T23:33:11.552Z,16.02
2017-09-06T23:35:38.331Z,16.16
2017-09-06T23:38:05.172Z,16.23
2017-09-06T23:40:31.962Z,16.23
2017-09-06T23:42:58.797Z,16.06
2017-09-06T23:45:26.098Z,16.27
2017-09-06T23:47:52.882Z,15.94
2017-09-06T23:50:19.754Z,16.21
2017-09-06T23:52:46.599Z,15.90
2017-09-06T23:55:13.410Z,15.87
2017-09-06T23:57:40.237Z,16.20
